Tropical Cyclones
[Index]
Main Index Home Page Stock Weather Photos Extreme Storms Discussion Storm News and Storm Chasing Reports Tropical Cyclones / Hurricanes / Typhoons Weather Data and Links Wild Fires / Bushfires Weather Observation Techniques Weather Picture Catalogue Tornado Pictures and Reports Stock Video Footage and DVDs for sale
Season 2003-2004 Tropical Cyclone JUBA Track Map
Season 2003-2004 Summaries: [BoM-AU] [JTWC-AU] [JTWC-SIO] [JTWC-SPAC] [JTWC-SH]
<<- Previous TC | JTWC 2003-2004 Season | Next TC ->>

click for intensity scale information  Lat/long Grid: Show Hide

 Date Labels: Show Hide

Joint Typhoon Warning Centre Cyclone Data

Name: JUBA

04 May 2004 00:00 UTC to 15 May 2004 00:00 UTC

    date/time    lat    long     hPa   cat  kts
2004-05-04 00    7.6    84.1    1004         20          
2004-05-04 06    8.1    83.1    1002         25          
2004-05-04 12    8.5    82.0    1002         25          
2004-05-04 18    8.7    80.6    1002         25          
2004-05-05 00    8.7    79.2    1002         25          
2004-05-05 06    8.6    77.8    1000         30          
2004-05-05 12    8.5    76.4     997         35          
2004-05-05 18    8.5    75.4     997         35          
2004-05-06 00    8.5    74.7     997         35          
2004-05-06 06    8.0    74.2     997         35          
2004-05-06 12    7.4    74.8    1000         30          
2004-05-06 18    7.2    75.9    1000         30          
2004-05-07 00    7.1    77.1    1000         30          
2004-05-07 06    7.8    78.1    1000         30          
2004-05-07 12    8.6    78.7    1000         30          
2004-05-07 18    9.4    78.9    1000         30          
2004-05-08 00    9.9    78.6    1002         25          
2004-05-08 06   10.3    78.2    1002         25          
2004-05-08 12   10.6    77.7    1002         25          
2004-05-08 18   10.5    77.1    1002         25          
2004-05-09 00   10.3    76.5    1002         25          
2004-05-09 06   10.3    75.9    1002         25          
2004-05-09 12   10.0    75.4    1002         25          
2004-05-09 18   10.2    74.6    1002         25          
2004-05-10 00   10.4    73.8    1002         25          
2004-05-10 06   10.5    72.9    1002         25          
2004-05-10 12   10.2    72.3    1002         25          
2004-05-10 18    9.9    71.8    1002         25          
2004-05-11 00    9.7    71.3    1002         25          
2004-05-11 06    9.6    70.8    1002         25          
2004-05-11 12    9.7    70.3    1002         25          
2004-05-11 18   10.1    70.0    1002         25          
2004-05-12 00   10.5    69.6    1002         25          
2004-05-12 06   10.9    69.0    1002         25          
2004-05-12 12   11.2    68.5    1000         30          
2004-05-12 18   11.7    68.1     994    1    40          
2004-05-13 00   12.2    67.8     984    2    55          
2004-05-13 06   12.8    67.6     976    2    65          
2004-05-13 06   12.8    67.6     976    2    65          
2004-05-13 12   13.4    67.5     976    2    65          
2004-05-13 12   13.4    67.5     976    2    65          
2004-05-13 18   14.1    67.5     976    2    65          
2004-05-13 18   14.1    67.5     976    2    65          
2004-05-14 00   14.8    67.6     980    2    60          
2004-05-14 00   14.8    67.6     980    2    60          
2004-05-14 06   15.1    67.0     991    1    45          
2004-05-14 12   14.8    66.3     997         35          
2004-05-14 18   14.4    65.9    1000         30          
2004-05-15 00   14.8    65.5    1002         25          
Winds are 1-min average.

Tropical cyclone tracks developed by Michael Bath using data from the Joint Typhoon Warning Centre Best Tracks and Google Maps.


[Australian Severe Weather index] [Copyright Notice] [Email Contacts] [Search This Site] [Privacy Policy]
Document: tropical_cyclone_juba.htm Updated: 28 June 2017